Wetterdaten: aktuell Donnerstag, 19.07.2018 19:00
Datum Zeit Temp. A. Temp. 2 Feuchte A. Luftdruck Regen Wind Richtung Richtung Sonnenschein Windben
19.07.2018 19:00 23,4 C 28,9 C 43 % 1017,7 hPa 0,0 l/m 9,7 km/h (2 Bft) NW 315 5 min 17,7 km/h (3 Bft)
19.07.2018 18:55 23,5 C 28,9 C 43 % 1017,7 hPa 0,0 l/m 12,9 km/h (3 Bft) NW 315 5 min 20,9 km/h (4 Bft)
19.07.2018 18:50 23,6 C 29,4 C 43 % 1017,6 hPa 0,0 l/m 12,9 km/h (3 Bft) NW 315 5 min 20,9 km/h (4 Bft)
19.07.2018 18:45 23,6 C 29,4 C 43 % 1017,6 hPa 0,0 l/m 11,3 km/h (2 Bft) NW 315 5 min 22,5 km/h (4 Bft)
19.07.2018 18:40 23,8 C 28,3 C 42 % 1017,6 hPa 0,0 l/m 17,7 km/h (3 Bft) N-NW 337 5 min 27,4 km/h (4 Bft)
19.07.2018 18:35 23,8 C 29,4 C 42 % 1017,6 hPa 0,0 l/m 16,1 km/h (3 Bft) NW 315 5 min 27,4 km/h (4 Bft)
19.07.2018 18:30 24,0 C 29,4 C 42 % 1017,7 hPa 0,0 l/m 17,7 km/h (3 Bft) N-NW 337 5 min 24,1 km/h (4 Bft)
19.07.2018 18:25 24,1 C 28,9 C 42 % 1017,7 hPa 0,0 l/m 16,1 km/h (3 Bft) N-NW 337 5 min 25,7 km/h (4 Bft)
19.07.2018 18:20 24,2 C 30,6 C 41 % 1017,7 hPa 0,0 l/m 14,5 km/h (3 Bft) NW 315 5 min 20,9 km/h (4 Bft)
19.07.2018 18:15 24,3 C 30,0 C 41 % 1017,7 hPa 0,0 l/m 19,3 km/h (3 Bft) NW 315 5 min 25,7 km/h (4 Bft)
19.07.2018 18:10 24,3 C 30,6 C 41 % 1017,7 hPa 0,0 l/m 17,7 km/h (3 Bft) N-NW 337 5 min 24,1 km/h (4 Bft)
19.07.2018 18:05 24,3 C 30,6 C 41 % 1017,8 hPa 0,0 l/m 17,7 km/h (3 Bft) N-NW 337 5 min 29,0 km/h (5 Bft)
19.07.2018 18:00 24,4 C 31,1 C 41 % 1017,7 hPa 0,0 l/m 17,7 km/h (3 Bft) N-NW 337 5 min 29,0 km/h (5 Bft)
19.07.2018 17:55 24,6 C 32,2 C 40 % 1017,8 hPa 0,0 l/m 17,7 km/h (3 Bft) NW 315 5 min 25,7 km/h (4 Bft)
19.07.2018 17:50 24,8 C 32,8 C 40 % 1017,8 hPa 0,0 l/m 12,9 km/h (3 Bft) NW 315 5 min 19,3 km/h (3 Bft)
19.07.2018 17:45 24,8 C 33,3 C 40 % 1017,8 hPa 0,0 l/m 12,9 km/h (3 Bft) NW 315 5 min 20,9 km/h (4 Bft)
19.07.2018 17:40 24,9 C 33,3 C 40 % 1017,8 hPa 0,0 l/m 12,9 km/h (3 Bft) NW 315 5 min 22,5 km/h (4 Bft)
19.07.2018 17:35 25,2 C 33,3 C 40 % 1017,9 hPa 0,0 l/m 14,5 km/h (3 Bft) NW 315 5 min 24,1 km/h (4 Bft)
19.07.2018 17:30 25,2 C 34,4 C 41 % 1017,9 hPa 0,0 l/m 9,7 km/h (2 Bft) NW 315 5 min 17,7 km/h (3 Bft)
19.07.2018 17:25 25,1 C 34,4 C 40 % 1017,9 hPa 0,0 l/m 11,3 km/h (2 Bft) NW 315 5 min 17,7 km/h (3 Bft)
19.07.2018 17:20 25,0 C 33,9 C 40 % 1017,9 hPa 0,0 l/m 14,5 km/h (3 Bft) NW 315 5 min 20,9 km/h (4 Bft)
19.07.2018 17:15 25,0 C 33,9 C 40 % 1017,9 hPa 0,0 l/m 14,5 km/h (3 Bft) N-NW 337 5 min 24,1 km/h (4 Bft)
19.07.2018 17:10 24,7 C 33,9 C 42 % 1017,9 hPa 0,0 l/m 14,5 km/h (3 Bft) N-NW 337 5 min 20,9 km/h (4 Bft)
19.07.2018 17:05 24,8 C 33,3 C 42 % 1018,0 hPa 0,0 l/m 19,3 km/h (3 Bft) NW 315 5 min 30,6 km/h (5 Bft)
19.07.2018 17:00 24,9 C 33,9 C 43 % 1018,0 hPa 0,0 l/m 12,9 km/h (3 Bft) NW 315 5 min 20,9 km/h (4 Bft)
19.07.2018 16:55 25,2 C 33,9 C 43 % 1018,0 hPa 0,0 l/m 16,1 km/h (3 Bft) NW 315 5 min 22,5 km/h (4 Bft)
19.07.2018 16:50 24,8 C 34,4 C 43 % 1018,0 hPa 0,0 l/m 11,3 km/h (2 Bft) N-NW 337 5 min 27,4 km/h (4 Bft)
19.07.2018 16:45 24,5 C 34,4 C 45 % 1018,1 hPa 0,0 l/m 11,3 km/h (2 Bft) NW 315 5 min 19,3 km/h (3 Bft)
19.07.2018 16:40 24,6 C 32,2 C 44 % 1018,1 hPa 0,0 l/m 14,5 km/h (3 Bft) N-NW 337 5 min 22,5 km/h (4 Bft)
19.07.2018 16:35 24,7 C 31,1 C 45 % 1018,2 hPa 0,0 l/m 19,3 km/h (3 Bft) N-NW 337 5 min 29,0 km/h (5 Bft)
19.07.2018 16:30 24,6 C 33,9 C 46 % 1018,2 hPa 0,0 l/m 9,7 km/h (2 Bft) NW 315 5 min 22,5 km/h (4 Bft)
19.07.2018 16:25 24,7 C 31,1 C 45 % 1018,2 hPa 0,0 l/m 14,5 km/h (3 Bft) N-NW 337 5 min 22,5 km/h (4 Bft)
19.07.2018 16:20 24,0 C 33,3 C 46 % 1018,2 hPa 0,0 l/m 9,7 km/h (2 Bft) NW 315 5 min 17,7 km/h (3 Bft)
19.07.2018 16:15 24,2 C 27,8 C 46 % 1018,2 hPa 0,0 l/m 16,1 km/h (3 Bft) N-NW 337 0 min 24,1 km/h (4 Bft)
19.07.2018 16:10 24,3 C 30,0 C 47 % 1018,2 hPa 0,0 l/m 14,5 km/h (3 Bft) N-NW 337 0 min 24,1 km/h (4 Bft)
19.07.2018 16:05 24,2 C 32,8 C 47 % 1018,2 hPa 0,0 l/m 9,7 km/h (2 Bft) W-NW 292 5 min 19,3 km/h (3 Bft)
19.07.2018 16:00 24,7 C 28,9 C 45 % 1018,2 hPa 0,0 l/m 11,3 km/h (2 Bft) W-NW 292 0 min 19,3 km/h (3 Bft)
19.07.2018 15:55 25,2 C 34,4 C 42 % 1018,3 hPa 0,0 l/m 16,1 km/h (3 Bft) N-NW 337 5 min 25,7 km/h (4 Bft)
19.07.2018 15:50 25,4 C 35,6 C 45 % 1018,3 hPa 0,0 l/m 16,1 km/h (3 Bft) NW 315 5 min 25,7 km/h (4 Bft)
19.07.2018 15:45 25,6 C 34,4 C 44 % 1018,3 hPa 0,0 l/m 19,3 km/h (3 Bft) NW 315 5 min 29,0 km/h (5 Bft)
19.07.2018 15:40 25,6 C 34,4 C 45 % 1018,2 hPa 0,0 l/m 16,1 km/h (3 Bft) N-NW 337 5 min 27,4 km/h (4 Bft)
19.07.2018 15:35 25,6 C 36,7 C 45 % 1018,3 hPa 0,0 l/m 9,7 km/h (2 Bft) NW 315 5 min 17,7 km/h (3 Bft)
19.07.2018 15:30 25,4 C 36,1 C 45 % 1018,3 hPa 0,0 l/m 12,9 km/h (3 Bft) N-NW 337 5 min 20,9 km/h (4 Bft)
19.07.2018 15:25 25,4 C 35,6 C 44 % 1018,3 hPa 0,0 l/m 11,3 km/h (2 Bft) NW 315 5 min 30,6 km/h (5 Bft)
19.07.2018 15:20 25,4 C 36,1 C 43 % 1018,4 hPa 0,0 l/m 11,3 km/h (2 Bft) NW 315 5 min 24,1 km/h (4 Bft)
19.07.2018 15:15 25,4 C 35,6 C 42 % 1018,3 hPa 0,0 l/m 16,1 km/h (3 Bft) NW 315 5 min 27,4 km/h (4 Bft)
19.07.2018 15:10 25,4 C 35,0 C 43 % 1018,3 hPa 0,0 l/m 16,1 km/h (3 Bft) N-NW 337 5 min 25,7 km/h (4 Bft)
19.07.2018 15:05 25,3 C 35,6 C 44 % 1018,3 hPa 0,0 l/m 12,9 km/h (3 Bft) NW 315 5 min 19,3 km/h (3 Bft)
19.07.2018 15:00 25,6 C 32,2 C 43 % 1018,4 hPa 0,0 l/m 16,1 km/h (3 Bft) N-NW 337 5 min 24,1 km/h (4 Bft)
19.07.2018 14:55 25,4 C 36,1 C 45 % 1018,4 hPa 0,0 l/m 12,9 km/h (3 Bft) NW 315 5 min 24,1 km/h (4 Bft)
19.07.2018 14:50 25,4 C 37,2 C 43 % 1018,4 hPa 0,0 l/m 19,3 km/h (3 Bft) NW 315 5 min 27,4 km/h (4 Bft)
19.07.2018 14:45 25,2 C 37,2 C 43 % 1018,4 hPa 0,0 l/m 16,1 km/h (3 Bft) NW 315 5 min 24,1 km/h (4 Bft)
19.07.2018 14:40 25,4 C 35,0 C 44 % 1018,4 hPa 0,0 l/m 14,5 km/h (3 Bft) NW 315 5 min 25,7 km/h (4 Bft)
19.07.2018 14:35 25,4 C 37,2 C 44 % 1018,4 hPa 0,0 l/m 14,5 km/h (3 Bft) NW 315 5 min 27,4 km/h (4 Bft)
19.07.2018 14:30 25,0 C 36,7 C 46 % 1018,4 hPa 0,0 l/m 11,3 km/h (2 Bft) NW 315 5 min 20,9 km/h (4 Bft)
19.07.2018 14:25 24,6 C 33,9 C 46 % 1018,5 hPa 0,0 l/m 14,5 km/h (3 Bft) NW 315 5 min 29,0 km/h (5 Bft)
19.07.2018 14:20 23,1 C 32,8 C 50 % 1018,5 hPa 0,0 l/m 11,3 km/h (2 Bft) NW 315 5 min 20,9 km/h (4 Bft)
19.07.2018 14:15 23,2 C 26,1 C 49 % 1018,5 hPa 0,0 l/m 12,9 km/h (3 Bft) NW 315 0 min 19,3 km/h (3 Bft)
19.07.2018 14:10 23,8 C 26,7 C 49 % 1018,5 hPa 0,0 l/m 12,9 km/h (3 Bft) NW 315 0 min 22,5 km/h (4 Bft)
19.07.2018 14:05 24,4 C 29,4 C 46 % 1018,5 hPa 0,0 l/m 16,1 km/h (3 Bft) NW 315 0 min 24,1 km/h (4 Bft)
19.07.2018 14:00 24,3 C 31,7 C 41 % 1018,5 hPa 0,0 l/m 17,7 km/h (3 Bft) N-NW 337 5 min 30,6 km/h (5 Bft)
19.07.2018 13:55 24,3 C 29,4 C 49 % 1018,6 hPa 0,0 l/m 12,9 km/h (3 Bft) NW 315 5 min 17,7 km/h (3 Bft)
19.07.2018 13:50 25,6 C 32,2 C 44 % 1018,6 hPa 0,0 l/m 12,9 km/h (3 Bft) NW 315 0 min 20,9 km/h (4 Bft)
19.07.2018 13:45 25,8 C 39,4 C 44 % 1018,5 hPa 0,0 l/m 11,3 km/h (2 Bft) NW 315 5 min 20,9 km/h (4 Bft)
19.07.2018 13:40 25,3 C 37,2 C 44 % 1018,6 hPa 0,0 l/m 12,9 km/h (3 Bft) N-NW 337 5 min 24,1 km/h (4 Bft)
19.07.2018 13:35 24,9 C 36,1 C 45 % 1018,7 hPa 0,0 l/m 14,5 km/h (3 Bft) NW 315 5 min 25,7 km/h (4 Bft)
19.07.2018 13:30 24,8 C 36,1 C 44 % 1018,7 hPa 0,0 l/m 16,1 km/h (3 Bft) N-NW 337 5 min 22,5 km/h (4 Bft)
19.07.2018 13:25 24,4 C 36,1 C 48 % 1018,7 hPa 0,0 l/m 12,9 km/h (3 Bft) NW 315 5 min 20,9 km/h (4 Bft)
19.07.2018 13:20 24,2 C 35,6 C 49 % 1018,8 hPa 0,0 l/m 9,7 km/h (2 Bft) N-NW 337 5 min 17,7 km/h (3 Bft)
19.07.2018 13:15 23,7 C 33,9 C 50 % 1018,8 hPa 0,0 l/m 14,5 km/h (3 Bft) NW 315 5 min 22,5 km/h (4 Bft)
19.07.2018 13:10 24,2 C 29,4 C 48 % 1018,8 hPa 0,0 l/m 9,7 km/h (2 Bft) NW 315 0 min 17,7 km/h (3 Bft)
19.07.2018 13:05 24,9 C 35,0 C 47 % 1018,8 hPa 0,0 l/m 12,9 km/h (3 Bft) NW 315 5 min 25,7 km/h (4 Bft)
19.07.2018 13:00 24,8 C 37,8 C 47 % 1018,9 hPa 0,0 l/m 14,5 km/h (3 Bft) NW 315 5 min 24,1 km/h (4 Bft)
19.07.2018 12:55 24,6 C 37,2 C 47 % 1018,9 hPa 0,0 l/m 12,9 km/h (3 Bft) NW 315 5 min 20,9 km/h (4 Bft)
19.07.2018 12:50 23,9 C 36,1 C 48 % 1018,9 hPa 0,0 l/m 11,3 km/h (2 Bft) NW 315 5 min 19,3 km/h (3 Bft)
19.07.2018 12:45 23,6 C 30,0 C 51 % 1018,9 hPa 0,0 l/m 9,7 km/h (2 Bft) NW 315 5 min 16,1 km/h (3 Bft)
19.07.2018 12:40 24,5 C 32,2 C 47 % 1019,0 hPa 0,0 l/m 11,3 km/h (2 Bft) NW 315 5 min 20,9 km/h (4 Bft)
19.07.2018 12:35 24,3 C 35,6 C 47 % 1018,9 hPa 0,0 l/m 16,1 km/h (3 Bft) N-NW 337 5 min 24,1 km/h (4 Bft)
19.07.2018 12:30 24,3 C 32,8 C 48 % 1019,0 hPa 0,0 l/m 14,5 km/h (3 Bft) N-NW 337 5 min 22,5 km/h (4 Bft)
19.07.2018 12:25 23,9 C 36,1 C 50 % 1018,9 hPa 0,0 l/m 9,7 km/h (2 Bft) NW 315 5 min 17,7 km/h (3 Bft)
19.07.2018 12:20 23,9 C 33,3 C 50 % 1019,0 hPa 0,0 l/m 9,7 km/h (2 Bft) NW 315 0 min 17,7 km/h (3 Bft)
19.07.2018 12:15 23,4 C 33,3 C 52 % 1019,0 hPa 0,0 l/m 14,5 km/h (3 Bft) N-NW 337 5 min 19,3 km/h (3 Bft)
19.07.2018 12:10 23,2 C 29,4 C 52 % 1019,1 hPa 0,0 l/m 12,9 km/h (3 Bft) N-NW 337 0 min 20,9 km/h (4 Bft)
19.07.2018 12:05 23,4 C 31,1 C 52 % 1019,1 hPa 0,0 l/m 6,4 km/h (2 Bft) N-NW 337 5 min 12,9 km/h (3 Bft)
19.07.2018 12:00 23,8 C 28,9 C 50 % 1019,1 hPa 0,0 l/m 11,3 km/h (2 Bft) NW 315 5 min 19,3 km/h (3 Bft)
19.07.2018 11:55 23,8 C 33,3 C 50 % 1019,1 hPa 0,0 l/m 12,9 km/h (3 Bft) N-NW 337 5 min 19,3 km/h (3 Bft)
19.07.2018 11:50 23,6 C 35,0 C 50 % 1019,1 hPa 0,0 l/m 9,7 km/h (2 Bft) N-NW 337 5 min 20,9 km/h (4 Bft)
19.07.2018 11:45 23,6 C 32,2 C 51 % 1019,1 hPa 0,0 l/m 12,9 km/h (3 Bft) N-NW 337 5 min 20,9 km/h (4 Bft)
19.07.2018 11:40 23,6 C 35,0 C 51 % 1019,1 hPa 0,0 l/m 8,0 km/h (2 Bft) NW 315 5 min 16,1 km/h (3 Bft)
19.07.2018 11:35 23,2 C 35,0 C 53 % 1019,1 hPa 0,0 l/m 4,8 km/h (1 Bft) NO 45 5 min 14,5 km/h (3 Bft)
19.07.2018 11:30 23,2 C 32,2 C 53 % 1019,2 hPa 0,0 l/m 9,7 km/h (2 Bft) N-NO 22 5 min 17,7 km/h (3 Bft)
19.07.2018 11:25 23,1 C 31,7 C 52 % 1019,2 hPa 0,0 l/m 12,9 km/h (3 Bft) N-NW 337 5 min 20,9 km/h (4 Bft)
19.07.2018 11:20 22,9 C 30,0 C 54 % 1019,2 hPa 0,0 l/m 9,7 km/h (2 Bft) N-NW 337 5 min 17,7 km/h (3 Bft)
19.07.2018 11:15 22,9 C 30,6 C 53 % 1019,2 hPa 0,0 l/m 12,9 km/h (3 Bft) N-NW 337 5 min 19,3 km/h (3 Bft)
19.07.2018 11:10 22,8 C 31,7 C 53 % 1019,3 hPa 0,0 l/m 9,7 km/h (2 Bft) N 360 5 min 17,7 km/h (3 Bft)
19.07.2018 11:05 22,5 C 31,1 C 53 % 1019,2 hPa 0,0 l/m 9,7 km/h (2 Bft) N-NW 337 5 min 17,7 km/h (3 Bft)
19.07.2018 11:00 22,6 C 30,6 C 53 % 1019,2 hPa 0,0 l/m 9,7 km/h (2 Bft) N 360 5 min 17,7 km/h (3 Bft)
19.07.2018 10:55 22,2 C 30,0 C 55 % 1019,2 hPa 0,0 l/m 9,7 km/h (2 Bft) N-NO 22 5 min 14,5 km/h (3 Bft)
19.07.2018 10:50 22,2 C 29,4 C 54 % 1019,3 hPa 0,0 l/m 12,9 km/h (3 Bft) N 360 5 min 17,7 km/h (3 Bft)
19.07.2018 10:45 22,2 C 29,4 C 54 % 1019,3 hPa 0,0 l/m 9,7 km/h (2 Bft) N-NW 337 5 min 16,1 km/h (3 Bft)
19.07.2018 10:40 21,8 C 28,9 C 54 % 1019,4 hPa 0,0 l/m 16,1 km/h (3 Bft) N-NW 337 5 min 20,9 km/h (4 Bft)
19.07.2018 10:35 21,8 C 28,3 C 55 % 1019,4 hPa 0,0 l/m 12,9 km/h (3 Bft) N-NW 337 5 min 19,3 km/h (3 Bft)
19.07.2018 10:30 21,4 C 28,9 C 56 % 1019,3 hPa 0,0 l/m 14,5 km/h (3 Bft) NW 315 5 min 19,3 km/h (3 Bft)
19.07.2018 10:25 21,3 C 28,3 C 56 % 1019,3 hPa 0,0 l/m 14,5 km/h (3 Bft) NW 315 5 min 20,9 km/h (4 Bft)
19.07.2018 10:20 21,4 C 27,8 C 56 % 1019,3 hPa 0,0 l/m 12,9 km/h (3 Bft) N-NW 337 5 min 20,9 km/h (4 Bft)
19.07.2018 10:15 21,5 C 27,8 C 57 % 1019,4 hPa 0,0 l/m 12,9 km/h (3 Bft) N-NW 337 5 min 19,3 km/h (3 Bft)
19.07.2018 10:10 21,1 C 28,9 C 58 % 1019,4 hPa 0,0 l/m 9,7 km/h (2 Bft) N-NW 337 5 min 17,7 km/h (3 Bft)
19.07.2018 10:05 21,1 C 27,8 C 58 % 1019,4 hPa 0,0 l/m 12,9 km/h (3 Bft) N-NW 337 5 min 19,3 km/h (3 Bft)
19.07.2018 10:00 21,0 C 27,2 C 59 % 1019,4 hPa 0,0 l/m 11,3 km/h (2 Bft) N-NW 337 5 min 17,7 km/h (3 Bft)
19.07.2018 09:55 20,7 C 28,3 C 62 % 1019,5 hPa 0,0 l/m 9,7 km/h (2 Bft) NW 315 5 min 19,3 km/h (3 Bft)
19.07.2018 09:50 20,3 C 28,3 C 62 % 1019,5 hPa 0,0 l/m 8,0 km/h (2 Bft) NW 315 5 min 14,5 km/h (3 Bft)
19.07.2018 09:45 20,0 C 26,7 C 64 % 1019,5 hPa 0,0 l/m 8,0 km/h (2 Bft) N 360 5 min 16,1 km/h (3 Bft)
19.07.2018 09:40 20,1 C 26,1 C 63 % 1019,5 hPa 0,0 l/m 9,7 km/h (2 Bft) N 360 5 min 16,1 km/h (3 Bft)
19.07.2018 09:35 19,8 C 26,1 C 64 % 1019,4 hPa 0,0 l/m 8,0 km/h (2 Bft) N-NW 337 5 min 16,1 km/h (3 Bft)
19.07.2018 09:30 19,7 C 26,1 C 65 % 1019,4 hPa 0,0 l/m 9,7 km/h (2 Bft) N-NW 337 5 min 14,5 km/h (3 Bft)
19.07.2018 09:25 19,3 C 26,1 C 69 % 1019,3 hPa 0,0 l/m 8,0 km/h (2 Bft) N 360 5 min 17,7 km/h (3 Bft)
19.07.2018 09:20 19,1 C 25,6 C 70 % 1019,3 hPa 0,0 l/m 6,4 km/h (2 Bft) N 360 5 min 12,9 km/h (3 Bft)
19.07.2018 09:15 19,0 C 25,0 C 70 % 1019,3 hPa 0,0 l/m 8,0 km/h (2 Bft) N 360 5 min 12,9 km/h (3 Bft)
19.07.2018 09:10 18,8 C 25,0 C 71 % 1019,3 hPa 0,0 l/m 8,0 km/h (2 Bft) N 360 5 min 14,5 km/h (3 Bft)
19.07.2018 09:05 18,5 C 25,0 C 73 % 1019,4 hPa 0,0 l/m 6,4 km/h (2 Bft) N 360 5 min 11,3 km/h (2 Bft)
19.07.2018 09:00 18,2 C 23,9 C 74 % 1019,4 hPa 0,0 l/m 9,7 km/h (2 Bft) N 360 5 min 17,7 km/h (3 Bft)
19.07.2018 08:55 18,1 C 23,9 C 77 % 1019,3 hPa 0,0 l/m 8,0 km/h (2 Bft) N-NO 22 5 min 12,9 km/h (3 Bft)
19.07.2018 08:50 17,8 C 23,9 C 79 % 1019,3 hPa 0,0 l/m 6,4 km/h (2 Bft) N-NW 337 5 min 12,9 km/h (3 Bft)
19.07.2018 08:45 17,7 C 23,9 C 79 % 1019,3 hPa 0,0 l/m 6,4 km/h (2 Bft) N 360 5 min 11,3 km/h (2 Bft)
19.07.2018 08:40 17,2 C 23,3 C 82 % 1019,3 hPa 0,0 l/m 6,4 km/h (2 Bft) N-NW 337 5 min 12,9 km/h (3 Bft)
19.07.2018 08:35 16,9 C 22,2 C 82 % 1019,3 hPa 0,0 l/m 6,4 km/h (2 Bft) N-NW 337 5 min 11,3 km/h (2 Bft)
19.07.2018 08:30 16,7 C 22,2 C 83 % 1019,4 hPa 0,0 l/m 9,7 km/h (2 Bft) N-NW 337 5 min 14,5 km/h (3 Bft)
19.07.2018 08:25 16,4 C 22,2 C 84 % 1019,4 hPa 0,0 l/m 8,0 km/h (2 Bft) N-NW 337 5 min 14,5 km/h (3 Bft)
19.07.2018 08:20 16,1 C 22,2 C 86 % 1019,4 hPa 0,0 l/m 6,4 km/h (2 Bft) N-NW 337 5 min 12,9 km/h (3 Bft)
19.07.2018 08:15 15,8 C 21,1 C 86 % 1019,4 hPa 0,0 l/m 8,0 km/h (2 Bft) N-NW 337 5 min 12,9 km/h (3 Bft)
19.07.2018 08:10 15,4 C 21,1 C 88 % 1019,4 hPa 0,0 l/m 6,4 km/h (2 Bft) N-NW 337 5 min 12,9 km/h (3 Bft)
19.07.2018 08:05 15,2 C 20,6 C 88 % 1019,4 hPa 0,0 l/m 6,4 km/h (2 Bft) N-NW 337 5 min 9,7 km/h (2 Bft)
19.07.2018 08:00 14,9 C 19,4 C 89 % 1019,4 hPa 0,0 l/m 6,4 km/h (2 Bft) NW 315 5 min 12,9 km/h (3 Bft)
19.07.2018 07:55 14,7 C 18,9 C 90 % 1019,4 hPa 0,0 l/m 6,4 km/h (2 Bft) N-NW 337 5 min 9,7 km/h (2 Bft)
19.07.2018 07:50 14,3 C 17,8 C 91 % 1019,4 hPa 0,0 l/m 6,4 km/h (2 Bft) N-NW 337 5 min 9,7 km/h (2 Bft)
19.07.2018 07:45 13,9 C 17,8 C 92 % 1019,4 hPa 0,0 l/m 6,4 km/h (2 Bft) NW 315 5 min 8,0 km/h (2 Bft)
19.07.2018 07:40 13,6 C 16,7 C 92 % 1019,4 hPa 0,0 l/m 6,4 km/h (2 Bft) N-NW 337 5 min 12,9 km/h (3 Bft)
19.07.2018 07:35 13,4 C 16,1 C 92 % 1019,4 hPa 0,0 l/m 8,0 km/h (2 Bft) NW 315 5 min 9,7 km/h (2 Bft)
19.07.2018 07:30 13,2 C 15,6 C 93 % 1019,4 hPa 0,0 l/m 8,0 km/h (2 Bft) N-NW 337 5 min 11,3 km/h (2 Bft)
19.07.2018 07:25 13,0 C 15,6 C 93 % 1019,4 hPa 0,0 l/m 8,0 km/h (2 Bft) N-NW 337 5 min 12,9 km/h (3 Bft)
19.07.2018 07:20 12,9 C 15,0 C 93 % 1019,3 hPa 0,0 l/m 8,0 km/h (2 Bft) N-NW 337 5 min 12,9 km/h (3 Bft)
19.07.2018 07:15 12,7 C 15,0 C 94 % 1019,3 hPa 0,0 l/m 4,8 km/h (1 Bft) N-NW 337 5 min 9,7 km/h (2 Bft)
19.07.2018 07:10 12,4 C 15,0 C 94 % 1019,2 hPa 0,0 l/m 3,2 km/h (1 Bft) W-NW 292 0 min 8,0 km/h (2 Bft)
19.07.2018 07:05 12,2 C 13,9 C 94 % 1019,2 hPa 0,0 l/m 3,2 km/h (1 Bft) NW 315 0 min 6,4 km/h (2 Bft)
19.07.2018 07:00 12,0 C 13,3 C 94 % 1019,2 hPa 0,0 l/m 4,8 km/h (1 Bft) NW 315 0 min 6,4 km/h (2 Bft)
19.07.2018 06:55 11,8 C 12,8 C 95 % 1019,1 hPa 0,0 l/m 6,4 km/h (2 Bft) W-NW 292 0 min 11,3 km/h (2 Bft)
19.07.2018 06:50 11,8 C 12,2 C 95 % 1019,0 hPa 0,0 l/m 6,4 km/h (2 Bft) NW 315 0 min 9,7 km/h (2 Bft)
19.07.2018 06:45 11,8 C 12,2 C 95 % 1019,0 hPa 0,0 l/m 4,8 km/h (1 Bft) W-NW 292 0 min 11,3 km/h (2 Bft)
19.07.2018 06:40 11,7 C 12,2 C 95 % 1018,9 hPa 0,0 l/m 4,8 km/h (1 Bft) NW 315 0 min 6,4 km/h (2 Bft)
19.07.2018 06:35 11,4 C 12,2 C 95 % 1018,8 hPa 0,0 l/m 4,8 km/h (1 Bft) NW 315 0 min 6,4 km/h (2 Bft)
19.07.2018 06:30 11,2 C 11,7 C 96 % 1018,8 hPa 0,0 l/m 3,2 km/h (1 Bft) N-NO 22 0 min 4,8 km/h (1 Bft)
19.07.2018 06:25 11,0 C 11,7 C 95 % 1018,8 hPa 0,0 l/m 1,6 km/h (1 Bft) N-NO 22 0 min 3,2 km/h (1 Bft)
19.07.2018 06:20 10,9 C 11,1 C 95 % 1018,7 hPa 0,0 l/m 1,6 km/h (1 Bft) N-NO 22 0 min 4,8 km/h (1 Bft)
19.07.2018 06:15 10,9 C 11,1 C 95 % 1018,7 hPa 0,0 l/m 0,0 km/h (0 Bft) N 0 0 min 0,0 km/h (0 Bft)
19.07.2018 06:10 10,8 C 11,1 C 95 % 1018,6 hPa 0,0 l/m 0,0 km/h (0 Bft) N-NW 337 0 min 3,2 km/h (1 Bft)
19.07.2018 06:05 10,8 C 10,6 C 95 % 1018,6 hPa 0,0 l/m 0,0 km/h (0 Bft) N-NW 337 0 min 3,2 km/h (1 Bft)
19.07.2018 06:00 10,8 C 10,6 C 95 % 1018,6 hPa 0,0 l/m 0,0 km/h (0 Bft) N 0 0 min 0,0 km/h (0 Bft)
19.07.2018 05:55 10,8 C 10,0 C 95 % 1018,6 hPa 0,0 l/m 1,6 km/h (1 Bft) NW 315 0 min 3,2 km/h (1 Bft)
19.07.2018 05:50 10,7 C 9,4 C 95 % 1018,6 hPa 0,0 l/m 3,2 km/h (1 Bft) NW 315 0 min 3,2 km/h (1 Bft)
19.07.2018 05:45 10,6 C 9,4 C 95 % 1018,7 hPa 0,0 l/m 1,6 km/h (1 Bft) NW 315 0 min 3,2 km/h (1 Bft)
19.07.2018 05:40 10,5 C 8,9 C 95 % 1018,6 hPa 0,0 l/m 0,0 km/h (0 Bft) NW 315 0 min 1,6 km/h (1 Bft)
19.07.2018 05:35 10,5 C 8,9 C 95 % 1018,6 hPa 0,0 l/m 0,0 km/h (0 Bft) N 0 0 min 0,0 km/h (0 Bft)
19.07.2018 05:30 10,4 C 8,9 C 95 % 1018,6 hPa 0,0 l/m 0,0 km/h (0 Bft) N 0 0 min 0,0 km/h (0 Bft)
19.07.2018 05:25 10,2 C 8,3 C 95 % 1018,7 hPa 0,0 l/m 0,0 km/h (0 Bft) N 0 0 min 0,0 km/h (0 Bft)
19.07.2018 05:20 9,8 C 8,3 C 94 % 1018,7 hPa 0,0 l/m 1,6 km/h (1 Bft) NW 315 0 min 3,2 km/h (1 Bft)
19.07.2018 05:15 9,6 C 8,3 C 94 % 1018,7 hPa 0,0 l/m 3,2 km/h (1 Bft) NW 315 0 min 4,8 km/h (1 Bft)
19.07.2018 05:10 9,5 C 7,8 C 94 % 1018,7 hPa 0,0 l/m 3,2 km/h (1 Bft) NW 315 0 min 4,8 km/h (1 Bft)
19.07.2018 05:05 9,7 C 8,3 C 93 % 1018,7 hPa 0,0 l/m 3,2 km/h (1 Bft) NW 315 0 min 4,8 km/h (1 Bft)
19.07.2018 05:00 10,2 C 8,3 C 93 % 1018,7 hPa 0,0 l/m 3,2 km/h (1 Bft) NW 315 0 min 4,8 km/h (1 Bft)
19.07.2018 04:55 10,3 C 8,9 C 94 % 1018,8 hPa 0,0 l/m 4,8 km/h (1 Bft) NW 315 0 min 6,4 km/h (2 Bft)
19.07.2018 04:50 10,4 C 8,3 C 93 % 1018,8 hPa 0,0 l/m 3,2 km/h (1 Bft) NW 315 0 min 4,8 km/h (1 Bft)
19.07.2018 04:45 10,7 C 8,9 C 93 % 1018,8 hPa 0,0 l/m 1,6 km/h (1 Bft) NW 315 0 min 3,2 km/h (1 Bft)
19.07.2018 04:40 10,9 C 8,9 C 94 % 1018,8 hPa 0,0 l/m 1,6 km/h (1 Bft) NW 315 0 min 3,2 km/h (1 Bft)
19.07.2018 04:35 10,8 C 9,4 C 94 % 1018,8 hPa 0,0 l/m 1,6 km/h (1 Bft) NW 315 0 min 4,8 km/h (1 Bft)
19.07.2018 04:30 11,0 C 8,9 C 93 % 1018,7 hPa 0,0 l/m 0,0 km/h (0 Bft) NW 315 0 min 1,6 km/h (1 Bft)
19.07.2018 04:25 11,1 C 9,4 C 93 % 1018,7 hPa 0,0 l/m 0,0 km/h (0 Bft) N 0 0 min 0,0 km/h (0 Bft)
19.07.2018 04:20 11,1 C 9,4 C 93 % 1018,7 hPa 0,0 l/m 0,0 km/h (0 Bft) N 0 0 min 0,0 km/h (0 Bft)
19.07.2018 04:15 11,1 C 9,4 C 93 % 1018,7 hPa 0,0 l/m 1,6 km/h (1 Bft) NW 315 0 min 4,8 km/h (1 Bft)
19.07.2018 04:10 11,1 C 9,4 C 93 % 1018,7 hPa 0,0 l/m 3,2 km/h (1 Bft) N-NW 337 0 min 4,8 km/h (1 Bft)
19.07.2018 04:05 11,1 C 9,4 C 93 % 1018,7 hPa 0,0 l/m 3,2 km/h (1 Bft) N-NW 337 0 min 4,8 km/h (1 Bft)
19.07.2018 04:00 11,1 C 8,9 C 93 % 1018,7 hPa 0,0 l/m 0,0 km/h (0 Bft) N-NW 337 0 min 4,8 km/h (1 Bft)
19.07.2018 03:55 11,3 C 8,9 C 93 % 1018,8 hPa 0,0 l/m 0,0 km/h (0 Bft) N-NW 337 0 min 3,2 km/h (1 Bft)
19.07.2018 03:50 11,3 C 8,3 C 93 % 1018,7 hPa 0,0 l/m 0,0 km/h (0 Bft) N 0 0 min 0,0 km/h (0 Bft)
19.07.2018 03:45 11,4 C 8,9 C 93 % 1018,7 hPa 0,0 l/m 0,0 km/h (0 Bft) N 0 0 min 0,0 km/h (0 Bft)
19.07.2018 03:40 11,5 C 8,9 C 93 % 1018,7 hPa 0,0 l/m 0,0 km/h (0 Bft) N 0 0 min 0,0 km/h (0 Bft)
19.07.2018 03:35 11,6 C 9,4 C 92 % 1018,7 hPa 0,0 l/m 1,6 km/h (1 Bft) N-NW 337 0 min 3,2 km/h (1 Bft)
19.07.2018 03:30 11,6 C 10,0 C 92 % 1018,7 hPa 0,0 l/m 3,2 km/h (1 Bft) N-NW 337 0 min 4,8 km/h (1 Bft)
19.07.2018 03:25 11,5 C 10,0 C 92 % 1018,7 hPa 0,0 l/m 3,2 km/h (1 Bft) N-NW 337 0 min 6,4 km/h (2 Bft)
19.07.2018 03:20 11,5 C 10,0 C 92 % 1018,7 hPa 0,0 l/m 4,8 km/h (1 Bft) NW 315 0 min 6,4 km/h (2 Bft)
19.07.2018 03:15 11,6 C 10,0 C 92 % 1018,7 hPa 0,0 l/m 3,2 km/h (1 Bft) NW 315 0 min 4,8 km/h (1 Bft)
19.07.2018 03:10 11,7 C 10,0 C 91 % 1018,7 hPa 0,0 l/m 3,2 km/h (1 Bft) NW 315 0 min 4,8 km/h (1 Bft)
19.07.2018 03:05 11,8 C 10,0 C 91 % 1018,7 hPa 0,0 l/m 3,2 km/h (1 Bft) NW 315 0 min 4,8 km/h (1 Bft)
19.07.2018 03:00 11,8 C 10,0 C 91 % 1018,8 hPa 0,0 l/m 3,2 km/h (1 Bft) NW 315 0 min 6,4 km/h (2 Bft)
19.07.2018 02:55 11,8 C 10,0 C 91 % 1018,8 hPa 0,0 l/m 1,6 km/h (1 Bft) N-NW 337 0 min 4,8 km/h (1 Bft)
19.07.2018 02:50 11,9 C 10,0 C 91 % 1018,8 hPa 0,0 l/m 1,6 km/h (1 Bft) N-NW 337 0 min 3,2 km/h (1 Bft)
19.07.2018 02:45 11,9 C 10,0 C 91 % 1018,8 hPa 0,0 l/m 0,0 km/h (0 Bft) N-NW 337 0 min 3,2 km/h (1 Bft)
19.07.2018 02:40 12,1 C 10,0 C 91 % 1018,8 hPa 0,0 l/m 0,0 km/h (0 Bft) N 0 0 min 0,0 km/h (0 Bft)
19.07.2018 02:35 12,2 C 10,0 C 91 % 1018,9 hPa 0,0 l/m 0,0 km/h (0 Bft) N 0 0 min 0,0 km/h (0 Bft)
19.07.2018 02:30 12,2 C 10,0 C 91 % 1018,9 hPa 0,0 l/m 0,0 km/h (0 Bft) N 0 0 min 0,0 km/h (0 Bft)
19.07.2018 02:25 12,3 C 10,0 C 90 % 1019,0 hPa 0,0 l/m 0,0 km/h (0 Bft) N 0 0 min 0,0 km/h (0 Bft)
19.07.2018 02:20 12,4 C 10,6 C 90 % 1018,9 hPa 0,0 l/m 0,0 km/h (0 Bft) N 0 0 min 0,0 km/h (0 Bft)
19.07.2018 02:15 12,2 C 10,6 C 91 % 1018,9 hPa 0,0 l/m 0,0 km/h (0 Bft) N-NW 337 0 min 4,8 km/h (1 Bft)
19.07.2018 02:10 12,1 C 10,0 C 90 % 1018,8 hPa 0,0 l/m 1,6 km/h (1 Bft) N-NW 337 0 min 4,8 km/h (1 Bft)
19.07.2018 02:05 12,3 C 10,0 C 89 % 1018,9 hPa 0,0 l/m 0,0 km/h (0 Bft) N-NW 337 0 min 3,2 km/h (1 Bft)
19.07.2018 02:00 12,6 C 10,0 C 89 % 1018,9 hPa 0,0 l/m 0,0 km/h (0 Bft) N-NW 337 0 min 3,2 km/h (1 Bft)
19.07.2018 01:55 12,7 C 10,0 C 89 % 1018,9 hPa 0,0 l/m 1,6 km/h (1 Bft) N-NW 337 0 min 3,2 km/h (1 Bft)
19.07.2018 01:50 12,7 C 10,6 C 89 % 1018,9 hPa 0,0 l/m 1,6 km/h (1 Bft) N-NW 337 0 min 4,8 km/h (1 Bft)
19.07.2018 01:45 12,6 C 10,6 C 89 % 1018,9 hPa 0,0 l/m 3,2 km/h (1 Bft) N-NW 337 0 min 4,8 km/h (1 Bft)
19.07.2018 01:40 12,6 C 10,6 C 89 % 1018,9 hPa 0,0 l/m 0,0 km/h (0 Bft) N-NW 337 0 min 4,8 km/h (1 Bft)
19.07.2018 01:35 12,8 C 10,6 C 89 % 1018,9 hPa 0,0 l/m 1,6 km/h (1 Bft) N-NW 337 0 min 3,2 km/h (1 Bft)
19.07.2018 01:30 12,8 C 11,1 C 89 % 1018,8 hPa 0,0 l/m 1,6 km/h (1 Bft) N-NW 337 0 min 4,8 km/h (1 Bft)
19.07.2018 01:25 12,7 C 11,7 C 89 % 1018,8 hPa 0,0 l/m 3,2 km/h (1 Bft) N-NW 337 0 min 6,4 km/h (2 Bft)
19.07.2018 01:20 12,8 C 11,1 C 88 % 1018,8 hPa 0,0 l/m 6,4 km/h (2 Bft) N-NW 337 0 min 8,0 km/h (2 Bft)
19.07.2018 01:15 12,8 C 11,1 C 88 % 1018,8 hPa 0,0 l/m 3,2 km/h (1 Bft) N-NW 337 0 min 6,4 km/h (2 Bft)
19.07.2018 01:10 12,8 C 11,7 C 88 % 1018,8 hPa 0,0 l/m 3,2 km/h (1 Bft) N-NW 337 0 min 6,4 km/h (2 Bft)
19.07.2018 01:05 13,1 C 11,1 C 87 % 1018,8 hPa 0,0 l/m 3,2 km/h (1 Bft) N-NW 337 0 min 6,4 km/h (2 Bft)
19.07.2018 01:00 13,3 C 11,7 C 88 % 1018,8 hPa 0,0 l/m 3,2 km/h (1 Bft) N-NW 337 0 min 4,8 km/h (1 Bft)
19.07.2018 00:55 13,4 C 11,7 C 87 % 1018,8 hPa 0,0 l/m 1,6 km/h (1 Bft) N-NW 337 0 min 4,8 km/h (1 Bft)
19.07.2018 00:50 13,7 C 12,2 C 87 % 1018,8 hPa 0,0 l/m 3,2 km/h (1 Bft) N-NW 337 0 min 4,8 km/h (1 Bft)
19.07.2018 00:45 14,0 C 12,2 C 86 % 1018,7 hPa 0,0 l/m 4,8 km/h (1 Bft) N-NW 337 0 min 8,0 km/h (2 Bft)
19.07.2018 00:40 14,2 C 12,8 C 87 % 1018,7 hPa 0,0 l/m 6,4 km/h (2 Bft) NW 315 0 min 12,9 km/h (3 Bft)
19.07.2018 00:35 14,3 C 12,8 C 87 % 1018,7 hPa 0,0 l/m 8,0 km/h (2 Bft) NW 315 0 min 12,9 km/h (3 Bft)
19.07.2018 00:30 14,3 C 12,8 C 87 % 1018,6 hPa 0,0 l/m 8,0 km/h (2 Bft) NW 315 0 min 12,9 km/h (3 Bft)
19.07.2018 00:25 14,2 C 12,8 C 87 % 1018,6 hPa 0,0 l/m 8,0 km/h (2 Bft) NW 315 0 min 12,9 km/h (3 Bft)
19.07.2018 00:20 14,3 C 12,8 C 86 % 1018,6 hPa 0,0 l/m 8,0 km/h (2 Bft) NW 315 0 min 9,7 km/h (2 Bft)
19.07.2018 00:15 14,4 C 12,8 C 85 % 1018,6 hPa 0,0 l/m 4,8 km/h (1 Bft) NW 315 0 min 8,0 km/h (2 Bft)
19.07.2018 00:10 14,4 C 12,8 C 86 % 1018,6 hPa 0,0 l/m 4,8 km/h (1 Bft) NW 315 0 min 8,0 km/h (2 Bft)
19.07.2018 00:05 14,3 C 12,8 C 86 % 1018,6 hPa 0,0 l/m 4,8 km/h (1 Bft) NW 315 0 min 8,0 km/h (2 Bft)
19.07.2018 00:00 14,3 C 12,2 C 85 % 1018,6 hPa 0,0 l/m 3,2 km/h (1 Bft) NW 315 0 min 4,8 km/h (1 Bft)
_ Min-Zeit 05:10 05:10 17:15 18:35 - 01:40 - - - 02:20
Minimum _ 9,5 C 7,8 C 40 % 1017,6 hPa - 0,0 km/h (0 Bft) - - - 0,0 km/h (0 Bft)
_ Max-Zeit 13:45 13:45 06:30 09:40 00:00 14:50 - - 07:15 14:00
Maximum _ 25,9 C 39,4 C 96 % 1019,5 hPa 0,0 l/m 19,3 km/h
NW (3 Bft)
- - 5 min 30,6 km/h
N-NW (5 Bft)
Durchschnitt _ 18,4 C 22,6 C 69 % 1018,7 hPa #0,0 l/m 8,3 km/h (2 Bft) NW - #11:00 h 14,1 km/h (3 Bft)